Wolfe Island, Canada
Current Conditions -  °F | °C
As of 10:00 AM on Thursday 30 Oct 2014 (Local Time) from CYGK Reporting Station
Scattered Clouds Scattered Clouds  
Wind Chill: 37°   Ceiling: Unl
Heat Index: 43°   Visibility: 15mi
Dew Point: 34°   Wind: 10mph
Humidity: 70%   Direction: 310°NW
Pressure: 30.04"   Gusts: NA
Location:  44.19°N, 76.44°W
Report Text: CYGK 301400Z 31009KT 15SM FEW015 SCT027 06/01 A3004 RMK CU1SC2 SLP175
Loading
Personal Weather Stations






























Interactive Weather Map
Tropical Storm Tracking
New forecast layout! Learn more

10-Day Weather Forecast

Advertisements
Track Severe Weather on mobile